KESN/ESN METAR and TAF weather

Enter ICAO airport designator
Station Type Date Time Source
KESN METAR 2019/04/20 22:50 UTC NOAA

KESN 202250Z 18012G19KT 10SM SCT150 21/09 A2978


Station Type Date Time Source
KESN Decoded METAR 2019/04/20 22:50 UTC NOAA

Easton / Newman Field, MD, United States (KESN) 38-48N 076-04W
Apr 20, 2019 - 06:50 PM EDT / 2019.04.20 2250 UTC
Wind: from the S (180 degrees) at 14 MPH (12 KT) gusting to 22 MPH (19 KT):0
Visibility: 10 mile(s):0
Sky conditions: partly cloudy
Temperature: 69 F (21 C)
Dew Point: 48 F (9 C)
Relative Humidity: 46%
Pressure (altimeter): 29.78 in. Hg (1008 hPa)
ob: KESN 202250Z 18012G19KT 10SM SCT150 21/09 A2978
cycle: 23

Station Type Date Time Source
KESN TAF UTC NOAA

Error!

Example: see airport list